sensor_id;sensor_type;location;lat;lon;timestamp;temperature;humidity
3003;DHT22;1511;51.326;12.344;2023-08-08T00:00:49;14.90;1.00
3003;DHT22;1511;51.326;12.344;2023-08-08T00:03:15;15.00;1.00
3003;DHT22;1511;51.326;12.344;2023-08-08T00:05:43;15.00;1.00
3003;DHT22;1511;51.326;12.344;2023-08-08T00:08:09;15.00;99.90
3003;DHT22;1511;51.326;12.344;2023-08-08T00:10:34;15.10;1.00
3003;DHT22;1511;51.326;12.344;2023-08-08T00:13:04;15.20;99.90
3003;DHT22;1511;51.326;12.344;2023-08-08T00:15:30;15.20;99.90
3003;DHT22;1511;51.326;12.344;2023-08-08T00:17:56;15.10;99.90
3003;DHT22;1511;51.326;12.344;2023-08-08T00:20:24;15.10;99.90
3003;DHT22;1511;51.326;12.344;2023-08-08T00:22:50;15.20;99.90
3003;DHT22;1511;51.326;12.344;2023-08-08T00:25:15;15.00;99.90
3003;DHT22;1511;51.326;12.344;2023-08-08T00:27:44;15.10;99.90
3003;DHT22;1511;51.326;12.344;2023-08-08T00:30:12;15.20;99.90
3003;DHT22;1511;51.326;12.344;2023-08-08T00:32:39;15.20;99.90
3003;DHT22;1511;51.326;12.344;2023-08-08T00:35:07;15.30;99.90
3003;DHT22;1511;51.326;12.344;2023-08-08T00:37:34;15.40;99.90
3003;DHT22;1511;51.326;12.344;2023-08-08T00:40:02;15.40;99.90
3003;DHT22;1511;51.326;12.344;2023-08-08T00:42:30;15.30;90.00
3003;DHT22;1511;51.326;12.344;2023-08-08T00:44:56;15.30;99.90
3003;DHT22;1511;51.326;12.344;2023-08-08T00:47:30;15.20;78.00
3003;DHT22;1511;51.326;12.344;2023-08-08T00:50:02;15.20;99.90
3003;DHT22;1511;51.326;12.344;2023-08-08T00:52:29;15.10;99.90
3003;DHT22;1511;51.326;12.344;2023-08-08T00:54:56;15.10;99.90
3003;DHT22;1511;51.326;12.344;2023-08-08T00:57:22;15.00;99.90
3003;DHT22;1511;51.326;12.344;2023-08-08T00:59:48;15.00;99.90
3003;DHT22;1511;51.326;12.344;2023-08-08T01:02:14;15.10;99.90
3003;DHT22;1511;51.326;12.344;2023-08-08T01:04:42;15.10;99.90
3003;DHT22;1511;51.326;12.344;2023-08-08T01:10:10;15.20;99.90
3003;DHT22;1511;51.326;12.344;2023-08-08T01:12:50;15.10;99.90
3003;DHT22;1511;51.326;12.344;2023-08-08T01:15:20;15.10;99.90
3003;DHT22;1511;51.326;12.344;2023-08-08T01:17:47;15.20;99.90
3003;DHT22;1511;51.326;12.344;2023-08-08T01:20:14;15.30;99.90
3003;DHT22;1511;51.326;12.344;2023-08-08T01:25:51;15.20;99.90
3003;DHT22;1511;51.326;12.344;2023-08-08T01:28:21;15.20;99.90
3003;DHT22;1511;51.326;12.344;2023-08-08T01:30:48;15.10;99.90
3003;DHT22;1511;51.326;12.344;2023-08-08T01:33:14;15.00;99.90
3003;DHT22;1511;51.326;12.344;2023-08-08T01:35:45;14.80;99.90
3003;DHT22;1511;51.326;12.344;2023-08-08T01:38:28;14.70;99.90
3003;DHT22;1511;51.326;12.344;2023-08-08T01:41:00;14.70;99.90
3003;DHT22;1511;51.326;12.344;2023-08-08T01:43:27;14.90;99.90
3003;DHT22;1511;51.326;12.344;2023-08-08T01:45:56;15.00;99.90
3003;DHT22;1511;51.326;12.344;2023-08-08T01:48:28;15.00;99.90
3003;DHT22;1511;51.326;12.344;2023-08-08T01:50:56;14.90;7.10
3003;DHT22;1511;51.326;12.344;2023-08-08T01:53:25;14.80;99.90
3003;DHT22;1511;51.326;12.344;2023-08-08T01:55:53;14.70;99.90
3003;DHT22;1511;51.326;12.344;2023-08-08T01:58:21;14.80;99.90
3003;DHT22;1511;51.326;12.344;2023-08-08T02:00:48;14.70;99.90
3003;DHT22;1511;51.326;12.344;2023-08-08T02:03:14;14.70;99.90
3003;DHT22;1511;51.326;12.344;2023-08-08T02:05:42;14.70;99.90
3003;DHT22;1511;51.326;12.344;2023-08-08T02:08:10;14.70;99.90
3003;DHT22;1511;51.326;12.344;2023-08-08T02:10:38;14.80;99.90
3003;DHT22;1511;51.326;12.344;2023-08-08T02:13:06;14.80;99.90
3003;DHT22;1511;51.326;12.344;2023-08-08T02:15:34;14.90;99.90
3003;DHT22;1511;51.326;12.344;2023-08-08T02:18:02;14.90;99.90
3003;DHT22;1511;51.326;12.344;2023-08-08T02:20:29;14.90;99.90
3003;DHT22;1511;51.326;12.344;2023-08-08T02:22:55;14.80;99.90
3003;DHT22;1511;51.326;12.344;2023-08-08T02:25:23;14.80;99.90
3003;DHT22;1511;51.326;12.344;2023-08-08T02:27:49;14.90;99.90
3003;DHT22;1511;51.326;12.344;2023-08-08T02:30:14;15.00;99.90
3003;DHT22;1511;51.326;12.344;2023-08-08T02:32:40;14.90;58.70
3003;DHT22;1511;51.326;12.344;2023-08-08T02:35:06;14.90;99.90
3003;DHT22;1511;51.326;12.344;2023-08-08T02:37:32;14.90;99.90
3003;DHT22;1511;51.326;12.344;2023-08-08T02:40:00;14.90;1.00
3003;DHT22;1511;51.326;12.344;2023-08-08T02:42:26;14.80;99.90
3003;DHT22;1511;51.326;12.344;2023-08-08T02:44:52;14.80;99.90
3003;DHT22;1511;51.326;12.344;2023-08-08T02:47:22;14.80;99.90
3003;DHT22;1511;51.326;12.344;2023-08-08T02:49:49;14.90;99.90
3003;DHT22;1511;51.326;12.344;2023-08-08T02:52:17;14.70;99.90
3003;DHT22;1511;51.326;12.344;2023-08-08T02:54:43;14.80;99.90
3003;DHT22;1511;51.326;12.344;2023-08-08T02:57:11;14.80;99.90
3003;DHT22;1511;51.326;12.344;2023-08-08T02:59:37;14.80;99.90
3003;DHT22;1511;51.326;12.344;2023-08-08T03:02:03;14.80;99.90
3003;DHT22;1511;51.326;12.344;2023-08-08T03:04:32;14.60;99.90
3003;DHT22;1511;51.326;12.344;2023-08-08T03:07:03;14.60;99.90
3003;DHT22;1511;51.326;12.344;2023-08-08T03:09:31;14.60;99.90
3003;DHT22;1511;51.326;12.344;2023-08-08T03:11:59;14.60;99.90
3003;DHT22;1511;51.326;12.344;2023-08-08T03:14:30;14.60;99.90
3003;DHT22;1511;51.326;12.344;2023-08-08T03:16:58;14.50;99.90
3003;DHT22;1511;51.326;12.344;2023-08-08T03:19:29;14.50;1.00
3003;DHT22;1511;51.326;12.344;2023-08-08T03:21:54;14.60;99.90
3003;DHT22;1511;51.326;12.344;2023-08-08T03:24:25;14.60;99.90
3003;DHT22;1511;51.326;12.344;2023-08-08T03:26:50;14.70;99.90
3003;DHT22;1511;51.326;12.344;2023-08-08T03:29:18;14.70;99.90
3003;DHT22;1511;51.326;12.344;2023-08-08T03:31:48;14.70;99.90
3003;DHT22;1511;51.326;12.344;2023-08-08T03:34:17;14.70;99.90
3003;DHT22;1511;51.326;12.344;2023-08-08T03:36:43;14.70;99.90
3003;DHT22;1511;51.326;12.344;2023-08-08T03:39:11;14.60;99.90
3003;DHT22;1511;51.326;12.344;2023-08-08T03:41:37;14.60;99.90
3003;DHT22;1511;51.326;12.344;2023-08-08T03:44:05;14.70;99.90
3003;DHT22;1511;51.326;12.344;2023-08-08T03:46:31;14.70;99.90
3003;DHT22;1511;51.326;12.344;2023-08-08T03:48:59;14.70;99.90
3003;DHT22;1511;51.326;12.344;2023-08-08T03:51:25;14.50;99.90
3003;DHT22;1511;51.326;12.344;2023-08-08T03:53:50;14.60;99.90
3003;DHT22;1511;51.326;12.344;2023-08-08T03:56:16;14.60;1.00
3003;DHT22;1511;51.326;12.344;2023-08-08T03:58:42;14.70;99.90
3003;DHT22;1511;51.326;12.344;2023-08-08T04:01:10;14.70;99.90
3003;DHT22;1511;51.326;12.344;2023-08-08T04:03:36;14.50;99.90
3003;DHT22;1511;51.326;12.344;2023-08-08T04:06:02;14.60;99.90
3003;DHT22;1511;51.326;12.344;2023-08-08T04:08:31;14.50;99.90
3003;DHT22;1511;51.326;12.344;2023-08-08T04:10:58;14.60;99.90
3003;DHT22;1511;51.326;12.344;2023-08-08T04:13:23;14.40;1.00
3003;DHT22;1511;51.326;12.344;2023-08-08T04:15:51;14.40;1.00
3003;DHT22;1511;51.326;12.344;2023-08-08T04:18:17;14.50;1.00
3003;DHT22;1511;51.326;12.344;2023-08-08T04:20:45;14.50;1.00
3003;DHT22;1511;51.326;12.344;2023-08-08T04:23:12;14.40;1.00
3003;DHT22;1511;51.326;12.344;2023-08-08T04:25:39;14.50;1.00
3003;DHT22;1511;51.326;12.344;2023-08-08T04:28:05;14.60;1.00
3003;DHT22;1511;51.326;12.344;2023-08-08T04:30:30;14.70;1.00
3003;DHT22;1511;51.326;12.344;2023-08-08T04:32:56;14.70;99.90
3003;DHT22;1511;51.326;12.344;2023-08-08T04:35:24;14.80;99.90
3003;DHT22;1511;51.326;12.344;2023-08-08T04:37:52;14.80;99.90
3003;DHT22;1511;51.326;12.344;2023-08-08T04:40:18;14.80;99.90
3003;DHT22;1511;51.326;12.344;2023-08-08T04:42:46;14.80;1.00
3003;DHT22;1511;51.326;12.344;2023-08-08T04:45:12;14.70;1.00
3003;DHT22;1511;51.326;12.344;2023-08-08T04:47:38;14.50;1.00
3003;DHT22;1511;51.326;12.344;2023-08-08T04:50:04;14.60;1.00
3003;DHT22;1511;51.326;12.344;2023-08-08T04:52:31;14.70;1.00
3003;DHT22;1511;51.326;12.344;2023-08-08T04:54:57;14.70;1.00
3003;DHT22;1511;51.326;12.344;2023-08-08T04:57:27;14.90;1.00
3003;DHT22;1511;51.326;12.344;2023-08-08T04:59:56;14.80;1.00
3003;DHT22;1511;51.326;12.344;2023-08-08T05:02:22;14.80;1.00
3003;DHT22;1511;51.326;12.344;2023-08-08T05:04:48;14.70;1.00
3003;DHT22;1511;51.326;12.344;2023-08-08T05:07:13;14.60;1.00
3003;DHT22;1511;51.326;12.344;2023-08-08T05:09:39;14.50;1.00
3003;DHT22;1511;51.326;12.344;2023-08-08T05:12:06;14.50;1.00
3003;DHT22;1511;51.326;12.344;2023-08-08T05:14:32;14.70;1.00
3003;DHT22;1511;51.326;12.344;2023-08-08T05:16:57;14.90;1.00
3003;DHT22;1511;51.326;12.344;2023-08-08T05:19:23;15.00;99.90
3003;DHT22;1511;51.326;12.344;2023-08-08T05:21:50;15.10;99.90
3003;DHT22;1511;51.326;12.344;2023-08-08T05:24:16;15.30;99.90
3003;DHT22;1511;51.326;12.344;2023-08-08T05:26:44;15.30;99.90
3003;DHT22;1511;51.326;12.344;2023-08-08T05:29:13;15.30;99.90
3003;DHT22;1511;51.326;12.344;2023-08-08T05:31:38;15.30;99.90
3003;DHT22;1511;51.326;12.344;2023-08-08T05:34:04;15.30;1.00
3003;DHT22;1511;51.326;12.344;2023-08-08T05:36:32;15.40;1.00
3003;DHT22;1511;51.326;12.344;2023-08-08T05:38:58;15.30;1.00
3003;DHT22;1511;51.326;12.344;2023-08-08T05:41:24;15.30;77.10
3003;DHT22;1511;51.326;12.344;2023-08-08T05:43:50;15.40;1.00
3003;DHT22;1511;51.326;12.344;2023-08-08T05:46:16;15.50;23.50
3003;DHT22;1511;51.326;12.344;2023-08-08T05:48:42;15.60;14.40
3003;DHT22;1511;51.326;12.344;2023-08-08T05:51:08;15.60;1.00
3003;DHT22;1511;51.326;12.344;2023-08-08T05:53:33;15.60;1.00
3003;DHT22;1511;51.326;12.344;2023-08-08T05:55:59;15.60;1.00
3003;DHT22;1511;51.326;12.344;2023-08-08T05:58:25;15.50;1.00
3003;DHT22;1511;51.326;12.344;2023-08-08T06:00:54;15.60;1.00
3003;DHT22;1511;51.326;12.344;2023-08-08T06:03:19;15.60;1.00
3003;DHT22;1511;51.326;12.344;2023-08-08T06:05:45;15.70;1.00
3003;DHT22;1511;51.326;12.344;2023-08-08T06:08:11;15.60;1.00
3003;DHT22;1511;51.326;12.344;2023-08-08T06:10:38;15.70;1.00
3003;DHT22;1511;51.326;12.344;2023-08-08T06:13:04;15.80;1.00
3003;DHT22;1511;51.326;12.344;2023-08-08T06:15:30;15.80;1.00
3003;DHT22;1511;51.326;12.344;2023-08-08T06:17:57;15.70;99.90
3003;DHT22;1511;51.326;12.344;2023-08-08T06:20:25;15.60;1.00
3003;DHT22;1511;51.326;12.344;2023-08-08T06:22:51;15.50;1.00
3003;DHT22;1511;51.326;12.344;2023-08-08T06:25:17;15.60;1.00
3003;DHT22;1511;51.326;12.344;2023-08-08T06:27:43;15.60;8.20
3003;DHT22;1511;51.326;12.344;2023-08-08T06:30:11;15.50;1.00
3003;DHT22;1511;51.326;12.344;2023-08-08T06:32:40;15.50;99.90
3003;DHT22;1511;51.326;12.344;2023-08-08T06:35:08;15.70;99.90
3003;DHT22;1511;51.326;12.344;2023-08-08T06:37:37;15.80;99.90
3003;DHT22;1511;51.326;12.344;2023-08-08T06:40:08;15.80;1.00
3003;DHT22;1511;51.326;12.344;2023-08-08T06:42:36;15.80;1.00
3003;DHT22;1511;51.326;12.344;2023-08-08T06:45:02;15.70;99.90
3003;DHT22;1511;51.326;12.344;2023-08-08T06:47:32;15.80;99.90
3003;DHT22;1511;51.326;12.344;2023-08-08T06:50:01;15.90;99.90
3003;DHT22;1511;51.326;12.344;2023-08-08T06:52:26;15.90;1.00
3003;DHT22;1511;51.326;12.344;2023-08-08T06:54:52;15.80;99.90
3003;DHT22;1511;51.326;12.344;2023-08-08T06:57:18;15.90;99.90
3003;DHT22;1511;51.326;12.344;2023-08-08T06:59:44;15.90;99.90
3003;DHT22;1511;51.326;12.344;2023-08-08T07:02:09;16.00;99.90
3003;DHT22;1511;51.326;12.344;2023-08-08T07:04:35;16.10;99.90
3003;DHT22;1511;51.326;12.344;2023-08-08T07:07:01;16.30;99.90
3003;DHT22;1511;51.326;12.344;2023-08-08T07:09:29;16.40;99.90
3003;DHT22;1511;51.326;12.344;2023-08-08T07:11:54;16.50;1.00
3003;DHT22;1511;51.326;12.344;2023-08-08T07:14:20;16.50;44.80
3003;DHT22;1511;51.326;12.344;2023-08-08T07:16:46;16.60;99.90
3003;DHT22;1511;51.326;12.344;2023-08-08T07:19:13;16.70;1.00
3003;DHT22;1511;51.326;12.344;2023-08-08T07:21:46;16.60;1.00
3003;DHT22;1511;51.326;12.344;2023-08-08T07:24:14;16.40;1.00
3003;DHT22;1511;51.326;12.344;2023-08-08T07:26:40;16.30;99.90
3003;DHT22;1511;51.326;12.344;2023-08-08T07:29:06;16.30;1.00
3003;DHT22;1511;51.326;12.344;2023-08-08T07:31:34;16.40;99.90
3003;DHT22;1511;51.326;12.344;2023-08-08T07:34:03;16.40;1.00
3003;DHT22;1511;51.326;12.344;2023-08-08T07:36:31;16.40;1.00
3003;DHT22;1511;51.326;12.344;2023-08-08T07:38:57;16.40;1.00
3003;DHT22;1511;51.326;12.344;2023-08-08T07:41:26;16.40;99.90
3003;DHT22;1511;51.326;12.344;2023-08-08T07:43:52;16.50;99.90
3003;DHT22;1511;51.326;12.344;2023-08-08T07:46:23;16.60;1.00
3003;DHT22;1511;51.326;12.344;2023-08-08T07:48:49;16.60;1.00
3003;DHT22;1511;51.326;12.344;2023-08-08T07:51:14;16.40;1.00
3003;DHT22;1511;51.326;12.344;2023-08-08T07:53:40;16.40;1.00
3003;DHT22;1511;51.326;12.344;2023-08-08T07:56:08;16.30;1.00
3003;DHT22;1511;51.326;12.344;2023-08-08T07:58:34;16.20;99.90
3003;DHT22;1511;51.326;12.344;2023-08-08T08:01:00;16.10;99.90
3003;DHT22;1511;51.326;12.344;2023-08-08T08:03:28;16.00;99.90
3003;DHT22;1511;51.326;12.344;2023-08-08T08:05:54;15.90;99.90
3003;DHT22;1511;51.326;12.344;2023-08-08T08:08:20;16.10;99.90
3003;DHT22;1511;51.326;12.344;2023-08-08T08:10:49;17.00;99.90
3003;DHT22;1511;51.326;12.344;2023-08-08T08:13:16;17.60;99.90
3003;DHT22;1511;51.326;12.344;2023-08-08T08:15:43;17.80;1.00
3003;DHT22;1511;51.326;12.344;2023-08-08T08:18:09;18.10;99.90
3003;DHT22;1511;51.326;12.344;2023-08-08T08:20:36;18.30;1.00
3003;DHT22;1511;51.326;12.344;2023-08-08T08:23:02;18.40;99.90
3003;DHT22;1511;51.326;12.344;2023-08-08T08:25:30;18.30;99.90
3003;DHT22;1511;51.326;12.344;2023-08-08T08:27:59;18.30;99.90
3003;DHT22;1511;51.326;12.344;2023-08-08T08:30:25;18.40;99.90
3003;DHT22;1511;51.326;12.344;2023-08-08T08:32:52;18.40;99.90
3003;DHT22;1511;51.326;12.344;2023-08-08T08:35:18;18.30;99.90
3003;DHT22;1511;51.326;12.344;2023-08-08T08:37:44;18.40;99.90
3003;DHT22;1511;51.326;12.344;2023-08-08T08:40:10;18.50;99.90
3003;DHT22;1511;51.326;12.344;2023-08-08T08:42:38;18.50;99.90
3003;DHT22;1511;51.326;12.344;2023-08-08T08:45:05;18.60;74.10
3003;DHT22;1511;51.326;12.344;2023-08-08T08:47:33;18.70;1.00
3003;DHT22;1511;51.326;12.344;2023-08-08T08:50:01;18.60;1.00
3003;DHT22;1511;51.326;12.344;2023-08-08T08:52:29;18.60;80.90
3003;DHT22;1511;51.326;12.344;2023-08-08T08:54:55;18.50;31.20
3003;DHT22;1511;51.326;12.344;2023-08-08T08:57:22;18.50;99.90
3003;DHT22;1511;51.326;12.344;2023-08-08T08:59:54;18.60;99.90
3003;DHT22;1511;51.326;12.344;2023-08-08T09:02:20;18.60;99.90
3003;DHT22;1511;51.326;12.344;2023-08-08T09:04:48;18.70;99.90
3003;DHT22;1511;51.326;12.344;2023-08-08T09:07:14;18.30;1.00
3003;DHT22;1511;51.326;12.344;2023-08-08T09:09:44;17.90;99.90
3003;DHT22;1511;51.326;12.344;2023-08-08T09:12:10;17.60;99.90
3003;DHT22;1511;51.326;12.344;2023-08-08T09:14:41;17.40;1.00
3003;DHT22;1511;51.326;12.344;2023-08-08T09:17:14;17.70;1.00
3003;DHT22;1511;51.326;12.344;2023-08-08T09:19:45;18.00;99.90
3003;DHT22;1511;51.326;12.344;2023-08-08T09:22:15;18.30;1.00
3003;DHT22;1511;51.326;12.344;2023-08-08T09:24:41;18.50;40.10
3003;DHT22;1511;51.326;12.344;2023-08-08T09:27:12;18.50;1.00
3003;DHT22;1511;51.326;12.344;2023-08-08T09:29:40;18.40;99.90
3003;DHT22;1511;51.326;12.344;2023-08-08T09:32:07;18.40;99.90
3003;DHT22;1511;51.326;12.344;2023-08-08T09:34:36;18.70;1.00
3003;DHT22;1511;51.326;12.344;2023-08-08T09:37:06;18.80;1.00
3003;DHT22;1511;51.326;12.344;2023-08-08T09:39:34;18.90;1.00
3003;DHT22;1511;51.326;12.344;2023-08-08T09:42:02;18.80;1.00
3003;DHT22;1511;51.326;12.344;2023-08-08T09:44:29;18.80;1.00
3003;DHT22;1511;51.326;12.344;2023-08-08T09:46:57;18.80;99.90
3003;DHT22;1511;51.326;12.344;2023-08-08T09:49:26;18.70;1.00
3003;DHT22;1511;51.326;12.344;2023-08-08T09:51:52;19.00;99.90
3003;DHT22;1511;51.326;12.344;2023-08-08T09:54:22;18.90;99.90
3003;DHT22;1511;51.326;12.344;2023-08-08T09:56:50;19.00;99.90
3003;DHT22;1511;51.326;12.344;2023-08-08T09:59:17;19.20;4.20
3003;DHT22;1511;51.326;12.344;2023-08-08T10:01:44;19.10;1.00
3003;DHT22;1511;51.326;12.344;2023-08-08T10:04:12;19.00;1.00
3003;DHT22;1511;51.326;12.344;2023-08-08T10:06:43;19.20;1.00
3003;DHT22;1511;51.326;12.344;2023-08-08T10:09:13;19.20;99.90
3003;DHT22;1511;51.326;12.344;2023-08-08T10:11:39;19.20;99.90
3003;DHT22;1511;51.326;12.344;2023-08-08T10:14:09;19.30;99.90
3003;DHT22;1511;51.326;12.344;2023-08-08T10:16:37;19.30;99.90
3003;DHT22;1511;51.326;12.344;2023-08-08T10:19:06;19.30;99.90
3003;DHT22;1511;51.326;12.344;2023-08-08T10:21:37;19.30;99.90
3003;DHT22;1511;51.326;12.344;2023-08-08T10:24:09;19.20;99.90
3003;DHT22;1511;51.326;12.344;2023-08-08T10:27:00;19.10;99.90
3003;DHT22;1511;51.326;12.344;2023-08-08T10:29:33;18.90;99.90
3003;DHT22;1511;51.326;12.344;2023-08-08T10:32:03;18.90;99.90
3003;DHT22;1511;51.326;12.344;2023-08-08T10:34:41;18.90;99.90
3003;DHT22;1511;51.326;12.344;2023-08-08T10:37:13;18.70;99.90
3003;DHT22;1511;51.326;12.344;2023-08-08T10:40:00;18.60;99.90
3003;DHT22;1511;51.326;12.344;2023-08-08T10:42:32;18.50;99.90
3003;DHT22;1511;51.326;12.344;2023-08-08T10:45:12;18.60;99.90
3003;DHT22;1511;51.326;12.344;2023-08-08T10:47:40;18.60;99.90
3003;DHT22;1511;51.326;12.344;2023-08-08T10:55:27;18.20;1.00
3003;DHT22;1511;51.326;12.344;2023-08-08T10:58:10;18.10;99.90
3003;DHT22;1511;51.326;12.344;2023-08-08T11:00:41;18.00;38.00
3003;DHT22;1511;51.326;12.344;2023-08-08T11:03:08;17.90;99.90
3003;DHT22;1511;51.326;12.344;2023-08-08T11:05:37;18.00;1.00
3003;DHT22;1511;51.326;12.344;2023-08-08T11:08:05;18.10;78.20
3003;DHT22;1511;51.326;12.344;2023-08-08T11:10:36;18.20;1.00
3003;DHT22;1511;51.326;12.344;2023-08-08T11:13:05;18.30;99.90
3003;DHT22;1511;51.326;12.344;2023-08-08T11:15:33;18.20;99.90
3003;DHT22;1511;51.326;12.344;2023-08-08T11:18:02;18.30;1.00
3003;DHT22;1511;51.326;12.344;2023-08-08T11:20:33;18.40;1.00
3003;DHT22;1511;51.326;12.344;2023-08-08T11:23:00;18.40;99.90
3003;DHT22;1511;51.326;12.344;2023-08-08T11:25:35;18.50;1.80
3003;DHT22;1511;51.326;12.344;2023-08-08T11:28:02;18.70;1.00
3003;DHT22;1511;51.326;12.344;2023-08-08T11:30:32;18.60;99.90
3003;DHT22;1511;51.326;12.344;2023-08-08T11:33:00;18.80;1.00
3003;DHT22;1511;51.326;12.344;2023-08-08T11:35:26;19.00;1.00
3003;DHT22;1511;51.326;12.344;2023-08-08T11:37:56;19.20;99.90
3003;DHT22;1511;51.326;12.344;2023-08-08T11:40:25;19.20;99.90
3003;DHT22;1511;51.326;12.344;2023-08-08T11:42:54;19.40;99.90
3003;DHT22;1511;51.326;12.344;2023-08-08T11:45:22;19.60;99.90
3003;DHT22;1511;51.326;12.344;2023-08-08T11:47:51;19.70;47.10
3003;DHT22;1511;51.326;12.344;2023-08-08T11:50:20;19.70;1.00
3003;DHT22;1511;51.326;12.344;2023-08-08T11:52:51;19.90;4.60
3003;DHT22;1511;51.326;12.344;2023-08-08T11:55:20;19.90;1.00
3003;DHT22;1511;51.326;12.344;2023-08-08T11:57:48;19.80;1.00
3003;DHT22;1511;51.326;12.344;2023-08-08T12:00:15;19.80;1.00
3003;DHT22;1511;51.326;12.344;2023-08-08T12:02:47;19.70;1.00
3003;DHT22;1511;51.326;12.344;2023-08-08T12:05:14;19.70;1.00
3003;DHT22;1511;51.326;12.344;2023-08-08T12:07:47;19.60;1.00
3003;DHT22;1511;51.326;12.344;2023-08-08T12:10:21;19.50;1.00
3003;DHT22;1511;51.326;12.344;2023-08-08T12:12:55;19.40;1.00
3003;DHT22;1511;51.326;12.344;2023-08-08T12:15:23;19.40;1.00
3003;DHT22;1511;51.326;12.344;2023-08-08T12:17:53;19.30;1.00
3003;DHT22;1511;51.326;12.344;2023-08-08T12:20:19;19.40;1.00
3003;DHT22;1511;51.326;12.344;2023-08-08T12:22:47;19.50;1.00
3003;DHT22;1511;51.326;12.344;2023-08-08T12:25:15;19.60;1.00
3003;DHT22;1511;51.326;12.344;2023-08-08T12:27:43;19.70;1.00
3003;DHT22;1511;51.326;12.344;2023-08-08T12:30:10;19.70;1.00
3003;DHT22;1511;51.326;12.344;2023-08-08T12:32:36;19.70;1.00
3003;DHT22;1511;51.326;12.344;2023-08-08T12:35:02;19.90;1.00
3003;DHT22;1511;51.326;12.344;2023-08-08T12:37:28;20.10;1.00
3003;DHT22;1511;51.326;12.344;2023-08-08T12:39:56;20.30;1.00
3003;DHT22;1511;51.326;12.344;2023-08-08T12:42:24;20.40;1.00
3003;DHT22;1511;51.326;12.344;2023-08-08T12:44:50;20.30;1.00
3003;DHT22;1511;51.326;12.344;2023-08-08T12:47:19;20.20;1.00
3003;DHT22;1511;51.326;12.344;2023-08-08T12:49:48;20.20;99.90
3003;DHT22;1511;51.326;12.344;2023-08-08T12:52:16;20.10;99.90
3003;DHT22;1511;51.326;12.344;2023-08-08T12:54:42;20.10;99.90
3003;DHT22;1511;51.326;12.344;2023-08-08T12:57:08;20.30;99.90
3003;DHT22;1511;51.326;12.344;2023-08-08T12:59:38;20.60;99.90
3003;DHT22;1511;51.326;12.344;2023-08-08T13:02:04;20.60;99.90
3003;DHT22;1511;51.326;12.344;2023-08-08T13:04:32;20.50;99.90
3003;DHT22;1511;51.326;12.344;2023-08-08T13:06:58;20.40;99.90
3003;DHT22;1511;51.326;12.344;2023-08-08T13:09:26;20.30;99.90
3003;DHT22;1511;51.326;12.344;2023-08-08T13:11:52;20.30;99.90
3003;DHT22;1511;51.326;12.344;2023-08-08T13:14:18;20.20;99.90
3003;DHT22;1511;51.326;12.344;2023-08-08T13:16:46;20.10;99.90
3003;DHT22;1511;51.326;12.344;2023-08-08T13:19:12;20.00;99.90
3003;DHT22;1511;51.326;12.344;2023-08-08T13:21:38;19.90;99.90
3003;DHT22;1511;51.326;12.344;2023-08-08T13:24:07;19.90;99.90
3003;DHT22;1511;51.326;12.344;2023-08-08T13:26:35;19.90;1.00
3003;DHT22;1511;51.326;12.344;2023-08-08T13:29:01;19.80;99.90
3003;DHT22;1511;51.326;12.344;2023-08-08T13:31:26;19.80;1.00
3003;DHT22;1511;51.326;12.344;2023-08-08T13:33:52;19.80;99.90
3003;DHT22;1511;51.326;12.344;2023-08-08T13:36:18;19.80;1.00
3003;DHT22;1511;51.326;12.344;2023-08-08T13:38:44;19.80;99.90
3003;DHT22;1511;51.326;12.344;2023-08-08T13:41:10;19.80;99.90
3003;DHT22;1511;51.326;12.344;2023-08-08T13:43:35;19.80;99.90
3003;DHT22;1511;51.326;12.344;2023-08-08T13:46:01;19.70;99.90
3003;DHT22;1511;51.326;12.344;2023-08-08T13:48:33;19.70;99.90
3003;DHT22;1511;51.326;12.344;2023-08-08T13:51:00;19.80;99.90
3003;DHT22;1511;51.326;12.344;2023-08-08T13:53:26;19.80;99.90
3003;DHT22;1511;51.326;12.344;2023-08-08T13:55:51;19.90;99.90
3003;DHT22;1511;51.326;12.344;2023-08-08T13:58:17;19.90;99.90
3003;DHT22;1511;51.326;12.344;2023-08-08T14:00:44;20.00;99.90
3003;DHT22;1511;51.326;12.344;2023-08-08T14:03:10;20.00;99.90
3003;DHT22;1511;51.326;12.344;2023-08-08T14:05:36;20.00;99.90
3003;DHT22;1511;51.326;12.344;2023-08-08T14:08:04;20.00;99.90
3003;DHT22;1511;51.326;12.344;2023-08-08T14:10:31;20.00;99.90
3003;DHT22;1511;51.326;12.344;2023-08-08T14:12:57;20.10;99.90
3003;DHT22;1511;51.326;12.344;2023-08-08T14:15:25;20.00;99.90
3003;DHT22;1511;51.326;12.344;2023-08-08T14:17:51;20.00;99.90
3003;DHT22;1511;51.326;12.344;2023-08-08T14:20:17;20.00;99.90
3003;DHT22;1511;51.326;12.344;2023-08-08T14:22:45;20.00;99.90
3003;DHT22;1511;51.326;12.344;2023-08-08T14:25:14;19.90;99.90
3003;DHT22;1511;51.326;12.344;2023-08-08T14:27:40;19.70;99.90
3003;DHT22;1511;51.326;12.344;2023-08-08T14:30:07;19.30;99.90
3003;DHT22;1511;51.326;12.344;2023-08-08T14:32:35;19.00;99.90
3003;DHT22;1511;51.326;12.344;2023-08-08T14:35:04;18.90;99.90
3003;DHT22;1511;51.326;12.344;2023-08-08T14:37:37;18.90;1.00
3003;DHT22;1511;51.326;12.344;2023-08-08T14:40:05;19.00;1.00
3003;DHT22;1511;51.326;12.344;2023-08-08T14:42:31;19.10;1.00
3003;DHT22;1511;51.326;12.344;2023-08-08T14:44:57;18.90;99.90
3003;DHT22;1511;51.326;12.344;2023-08-08T14:47:25;18.90;1.00
3003;DHT22;1511;51.326;12.344;2023-08-08T14:49:56;18.70;1.00
3003;DHT22;1511;51.326;12.344;2023-08-08T14:52:22;18.70;1.00
3003;DHT22;1511;51.326;12.344;2023-08-08T14:54:48;18.70;1.00
3003;DHT22;1511;51.326;12.344;2023-08-08T14:57:15;18.60;1.00
3003;DHT22;1511;51.326;12.344;2023-08-08T14:59:40;18.70;1.00
3003;DHT22;1511;51.326;12.344;2023-08-08T15:02:06;18.70;1.00
3003;DHT22;1511;51.326;12.344;2023-08-08T15:04:32;18.70;1.00
3003;DHT22;1511;51.326;12.344;2023-08-08T15:06:58;18.80;1.00
3003;DHT22;1511;51.326;12.344;2023-08-08T15:09:24;19.00;1.00
3003;DHT22;1511;51.326;12.344;2023-08-08T15:11:50;19.00;1.00
3003;DHT22;1511;51.326;12.344;2023-08-08T15:14:16;19.00;1.00
3003;DHT22;1511;51.326;12.344;2023-08-08T15:16:54;19.00;1.00
3003;DHT22;1511;51.326;12.344;2023-08-08T15:19:24;19.00;1.00
3003;DHT22;1511;51.326;12.344;2023-08-08T15:21:50;19.00;1.00
3003;DHT22;1511;51.326;12.344;2023-08-08T15:24:19;18.90;1.00
3003;DHT22;1511;51.326;12.344;2023-08-08T15:26:45;18.90;1.00
3003;DHT22;1511;51.326;12.344;2023-08-08T15:29:13;18.90;1.00
3003;DHT22;1511;51.326;12.344;2023-08-08T15:31:39;18.90;1.00
3003;DHT22;1511;51.326;12.344;2023-08-08T15:34:05;18.90;1.00
3003;DHT22;1511;51.326;12.344;2023-08-08T15:36:31;18.90;1.00
3003;DHT22;1511;51.326;12.344;2023-08-08T15:38:59;18.90;1.00
3003;DHT22;1511;51.326;12.344;2023-08-08T15:41:25;18.90;1.00
3003;DHT22;1511;51.326;12.344;2023-08-08T15:43:51;18.90;1.00
3003;DHT22;1511;51.326;12.344;2023-08-08T15:46:17;18.80;1.00
3003;DHT22;1511;51.326;12.344;2023-08-08T15:48:43;18.90;1.00
3003;DHT22;1511;51.326;12.344;2023-08-08T15:51:09;18.90;1.00
3003;DHT22;1511;51.326;12.344;2023-08-08T15:53:34;18.80;1.00
3003;DHT22;1511;51.326;12.344;2023-08-08T15:56:03;18.90;1.00
3003;DHT22;1511;51.326;12.344;2023-08-08T15:58:29;18.90;1.00
3003;DHT22;1511;51.326;12.344;2023-08-08T16:00:55;19.00;1.00
3003;DHT22;1511;51.326;12.344;2023-08-08T16:03:23;19.10;1.00
3003;DHT22;1511;51.326;12.344;2023-08-08T16:05:51;19.10;1.00